createdAt,value
2023-01-25T00:00:44.209Z,16.85
2023-01-25T00:05:47.380Z,16.77
2023-01-25T00:10:52.681Z,17.77
2023-01-25T00:16:02.831Z,17.55
2023-01-25T00:21:13.993Z,17.73
2023-01-25T00:26:17.625Z,14.90
2023-01-25T00:31:33.083Z,17.98
2023-01-25T00:36:42.653Z,14.65
2023-01-25T00:41:45.931Z,14.40
2023-01-25T00:46:50.964Z,15.57
2023-01-25T00:51:55.871Z,16.02
2023-01-25T00:56:59.043Z,18.08
2023-01-25T01:02:04.121Z,17.23
2023-01-25T01:07:07.386Z,15.88
2023-01-25T01:12:10.603Z,16.15
2023-01-25T01:17:15.170Z,14.98
2023-01-25T01:22:18.324Z,15.13
2023-01-25T01:27:21.455Z,15.32
2023-01-25T01:32:26.280Z,16.92
2023-01-25T01:37:29.530Z,15.60
2023-01-25T01:42:32.634Z,15.65
2023-01-25T01:47:46.029Z,14.07
2023-01-25T01:52:50.102Z,16.45
2023-01-25T01:57:58.089Z,17.58
2023-01-25T02:03:03.261Z,17.67
2023-01-25T02:08:07.985Z,16.33
2023-01-25T02:13:11.773Z,16.20
2023-01-25T02:18:17.308Z,16.73
2023-01-25T02:23:27.796Z,18.30
2023-01-25T02:28:36.467Z,18.55
2023-01-25T02:33:39.621Z,18.90
2023-01-25T02:38:46.732Z,16.67
2023-01-25T02:43:51.705Z,17.75
2023-01-25T02:48:55.648Z,16.15
2023-01-25T02:53:59.055Z,14.23
2023-01-25T02:59:05.823Z,12.90
2023-01-25T03:04:09.861Z,14.23
2023-01-25T03:09:13.716Z,13.02
2023-01-25T03:14:18.444Z,12.35
2023-01-25T03:19:21.607Z,11.80
2023-01-25T03:24:24.789Z,10.48
2023-01-25T03:29:29.363Z,11.23
2023-01-25T03:34:32.514Z,11.10
2023-01-25T03:39:35.695Z,9.88
2023-01-25T03:44:40.253Z,12.68
2023-01-25T03:49:43.542Z,10.20
2023-01-25T03:54:48.050Z,10.20
2023-01-25T03:59:52.568Z,11.73
2023-01-25T04:04:55.714Z,10.03
2023-01-25T04:09:58.829Z,9.10
2023-01-25T04:15:03.416Z,8.23
2023-01-25T04:20:07.782Z,9.97
2023-01-25T04:25:11.761Z,10.13
2023-01-25T04:30:17.036Z,10.05
2023-01-25T04:35:20.987Z,8.60
2023-01-25T04:40:24.131Z,7.30
2023-01-25T04:45:28.709Z,6.95
2023-01-25T04:50:32.411Z,7.32
2023-01-25T04:55:35.624Z,7.65
2023-01-25T05:00:40.221Z,7.85
2023-01-25T05:05:47.516Z,6.40
2023-01-25T05:10:50.694Z,7.50
2023-01-25T05:15:57.414Z,5.90
2023-01-25T05:21:00.554Z,6.00
2023-01-25T05:26:32.480Z,6.55
2023-01-25T05:31:37.138Z,5.55
2023-01-25T05:36:40.336Z,5.53
2023-01-25T05:41:43.495Z,7.50
2023-01-25T05:46:48.303Z,5.82
2023-01-25T05:51:51.507Z,5.47
2023-01-25T05:56:54.628Z,5.03
2023-01-25T06:01:59.204Z,5.32
2023-01-25T06:07:02.348Z,6.13
2023-01-25T06:12:06.894Z,3.45
2023-01-25T06:17:11.450Z,4.43
2023-01-25T06:22:14.567Z,5.20
2023-01-25T06:27:17.730Z,4.57
2023-01-25T06:32:22.325Z,4.53
2023-01-25T06:37:25.476Z,3.87
2023-01-25T06:42:28.634Z,4.90
2023-01-25T06:47:33.171Z,4.13
2023-01-25T06:52:37.052Z,5.13
2023-01-25T06:57:40.201Z,4.13
2023-01-25T07:02:44.871Z,4.68
2023-01-25T07:07:48.542Z,4.60
2023-01-25T07:12:51.665Z,4.25
2023-01-25T07:18:01.160Z,3.28
2023-01-25T07:23:09.259Z,4.53
2023-01-25T07:28:12.392Z,5.28
2023-01-25T07:33:16.939Z,4.22
2023-01-25T07:38:20.083Z,4.47
2023-01-25T07:43:23.255Z,4.13
2023-01-25T07:48:27.897Z,3.35
2023-01-25T07:53:31.043Z,3.17
2023-01-25T07:58:34.255Z,4.40
2023-01-25T08:03:39.313Z,4.18
2023-01-25T08:08:44.799Z,4.30
2023-01-25T08:13:49.719Z,4.22
2023-01-25T08:18:56.147Z,4.28
2023-01-25T08:23:59.929Z,4.68
2023-01-25T08:29:03.361Z,5.13
2023-01-25T08:34:08.819Z,4.13
2023-01-25T08:44:16.084Z,4.13
2023-01-25T08:49:20.799Z,4.72
2023-01-25T08:54:24.550Z,5.10
2023-01-25T08:59:27.953Z,6.68
2023-01-25T09:04:32.530Z,7.28
2023-01-25T09:09:35.664Z,4.97
2023-01-25T09:14:40.414Z,5.40
2023-01-25T09:19:45.944Z,4.73
2023-01-25T09:24:52.370Z,3.83
2023-01-25T09:30:02.132Z,8.27
2023-01-25T09:35:08.363Z,6.47
2023-01-25T09:40:20.368Z,9.43
2023-01-25T09:45:32.096Z,8.38
2023-01-25T09:50:39.558Z,9.00
2023-01-25T09:55:43.279Z,9.20
2023-01-25T10:00:51.567Z,7.70
2023-01-25T10:06:01.158Z,7.00
2023-01-25T10:11:15.053Z,6.35
2023-01-25T10:16:28.476Z,6.85
2023-01-25T10:21:39.001Z,6.25
2023-01-25T10:26:46.588Z,7.05
2023-01-25T10:31:53.384Z,8.52
2023-01-25T10:36:59.487Z,6.57
2023-01-25T10:42:08.044Z,8.20
2023-01-25T10:47:22.879Z,6.07
2023-01-25T10:52:29.332Z,5.50
2023-01-25T10:57:32.795Z,5.80
2023-01-25T11:02:45.303Z,4.65
2023-01-25T11:07:50.295Z,8.65
2023-01-25T11:13:19.732Z,6.10
2023-01-25T11:18:25.352Z,8.48
2023-01-25T11:23:29.927Z,6.32
2023-01-25T11:28:33.088Z,5.47
2023-01-25T11:33:36.256Z,7.43
2023-01-25T11:38:49.537Z,5.18
2023-01-25T11:44:20.496Z,5.55
2023-01-25T11:49:35.951Z,5.25
2023-01-25T11:54:51.008Z,5.57
2023-01-25T12:00:11.242Z,5.63
2023-01-25T12:05:29.642Z,5.28
2023-01-25T12:10:46.043Z,5.60
2023-01-25T12:16:13.098Z,6.75
2023-01-25T12:21:31.843Z,6.07
2023-01-25T12:26:49.623Z,5.65
2023-01-25T12:31:58.396Z,5.40
2023-01-25T12:37:07.280Z,5.72
2023-01-25T12:42:20.035Z,6.50
2023-01-25T12:47:33.455Z,5.03
2023-01-25T12:52:40.319Z,5.15
2023-01-25T12:57:54.424Z,5.00
2023-01-25T13:03:29.425Z,5.97
2023-01-25T13:08:43.662Z,6.00
2023-01-25T13:13:48.389Z,5.78
2023-01-25T13:18:51.700Z,6.38
2023-01-25T13:24:24.262Z,6.45
2023-01-25T13:29:47.340Z,6.18
2023-01-25T13:35:00.701Z,5.57
2023-01-25T13:40:06.417Z,6.13
2023-01-25T13:45:20.032Z,5.38
2023-01-25T13:50:27.046Z,4.95
2023-01-25T13:55:38.821Z,4.88
2023-01-25T14:00:51.550Z,5.20
2023-01-25T14:05:57.709Z,5.47
2023-01-25T14:11:01.107Z,6.15
2023-01-25T14:16:11.678Z,4.32
2023-01-25T14:21:18.777Z,4.82
2023-01-25T14:26:25.184Z,3.97
2023-01-25T14:31:34.940Z,5.30
2023-01-25T14:36:38.179Z,4.88
2023-01-25T14:41:51.702Z,4.07
2023-01-25T14:47:30.160Z,4.43
2023-01-25T14:52:33.335Z,4.47
2023-01-25T14:57:39.311Z,4.68
2023-01-25T15:02:48.385Z,4.78
2023-01-25T15:07:54.022Z,4.82
2023-01-25T15:13:11.608Z,4.15
2023-01-25T15:18:45.198Z,4.72
2023-01-25T15:23:50.355Z,3.90
2023-01-25T15:28:55.061Z,3.10
2023-01-25T15:39:03.453Z,4.32
2023-01-25T15:44:07.247Z,5.50
2023-01-25T15:49:18.266Z,4.82
2023-01-25T15:54:21.472Z,5.05
2023-01-25T15:59:25.226Z,5.38
2023-01-25T16:04:29.785Z,6.80
2023-01-25T16:09:33.436Z,5.38
2023-01-25T16:14:36.653Z,5.05
2023-01-25T16:19:41.174Z,4.88
2023-01-25T16:24:44.783Z,5.18
2023-01-25T16:29:48.252Z,5.80
2023-01-25T16:34:52.866Z,6.88
2023-01-25T16:39:56.034Z,7.38
2023-01-25T16:44:59.275Z,7.57
2023-01-25T16:50:03.860Z,6.93
2023-01-25T16:55:07.932Z,5.93
2023-01-25T17:00:14.426Z,7.78
2023-01-25T17:05:19.216Z,8.30
2023-01-25T17:10:22.424Z,7.82
2023-01-25T17:15:25.739Z,9.70
2023-01-25T17:20:30.304Z,10.10
2023-01-25T17:25:35.591Z,10.52
2023-01-25T17:30:41.584Z,10.35
2023-01-25T17:35:46.340Z,90.43
2023-01-25T17:40:49.754Z,160.65
2023-01-25T17:45:52.939Z,44.03
2023-01-25T17:51:04.302Z,17.45
2023-01-25T17:56:08.631Z,20.25
2023-01-25T18:01:14.409Z,22.07
2023-01-25T18:06:21.416Z,25.35
2023-01-25T18:11:27.395Z,24.23
2023-01-25T18:16:33.233Z,28.80
2023-01-25T18:21:38.865Z,27.35
2023-01-25T18:26:42.826Z,28.00
2023-01-25T18:31:46.473Z,27.65
2023-01-25T18:36:51.070Z,21.73
2023-01-25T18:41:54.318Z,25.57
2023-01-25T18:46:57.702Z,27.55
2023-01-25T18:52:11.316Z,27.08
2023-01-25T18:57:15.941Z,27.55
2023-01-25T19:02:20.126Z,24.98
2023-01-25T19:07:24.777Z,23.63
2023-01-25T19:12:27.984Z,27.77
2023-01-25T19:17:32.915Z,27.48
2023-01-25T19:22:37.546Z,24.48
2023-01-25T19:27:40.788Z,24.27
2023-01-25T19:32:43.987Z,28.27
2023-01-25T19:37:48.715Z,24.85
2023-01-25T19:42:51.976Z,23.60
2023-01-25T19:47:55.466Z,28.77
2023-01-25T19:53:01.543Z,24.25
2023-01-25T19:58:04.806Z,26.00
2023-01-25T20:03:16.299Z,24.75
2023-01-25T20:08:21.388Z,23.20
2023-01-25T20:13:24.638Z,24.63
2023-01-25T20:18:28.261Z,28.70
2023-01-25T20:23:35.275Z,27.83
2023-01-25T20:28:39.107Z,28.35
2023-01-25T20:33:42.330Z,27.58
2023-01-25T20:38:47.317Z,25.50
2023-01-25T20:43:52.215Z,28.60
2023-01-25T20:48:55.897Z,28.83
2023-01-25T20:54:00.541Z,25.08
2023-01-25T20:59:03.869Z,37.40
2023-01-25T21:04:09.853Z,27.52
2023-01-25T21:09:14.494Z,32.50
2023-01-25T21:14:19.784Z,30.00
2023-01-25T21:24:27.731Z,27.33
2023-01-25T21:29:30.998Z,24.80
2023-01-25T21:34:34.280Z,24.92
2023-01-25T21:39:38.892Z,25.42
2023-01-25T21:44:59.587Z,27.33
2023-01-25T21:50:20.266Z,24.08
2023-01-25T21:55:24.975Z,25.33
2023-01-25T22:00:28.301Z,26.80
2023-01-25T22:05:31.521Z,26.27
2023-01-25T22:10:36.163Z,23.92
2023-01-25T22:15:39.433Z,25.67
2023-01-25T22:20:42.690Z,26.63
2023-01-25T22:25:48.998Z,23.80
2023-01-25T22:30:52.275Z,27.65
2023-01-25T22:35:55.567Z,25.63
2023-01-25T22:41:04.968Z,25.63
2023-01-25T22:46:09.867Z,25.90
2023-01-25T22:51:15.293Z,25.85
2023-01-25T23:01:25.810Z,26.13
2023-01-25T23:06:31.271Z,29.08
2023-01-25T23:11:37.802Z,27.85
2023-01-25T23:16:41.106Z,27.88
2023-01-25T23:21:44.375Z,26.70
2023-01-25T23:26:48.960Z,27.75
2023-01-25T23:31:52.210Z,27.07
2023-01-25T23:36:55.578Z,26.45
2023-01-25T23:42:00.207Z,26.77
2023-01-25T23:47:03.447Z,26.10
2023-01-25T23:52:06.746Z,24.13
2023-01-25T23:57:11.404Z,27.25
